Time;durP1;ratioP1;P1;durP2;ratioP2;P2;SDS_P1;SDS_P2;PMS_P1;PMS_P2;Temp;Humidity;BMP_temperature;BMP_pressure;BME280_temperature;BME280_humidity;BME280_pressure;Samples;Min_cycle;Max_cycle;Signal;HPM_P1;HPM_P2
2022/03/26 00:00:36;;;;;;;28.52;16.85;;;;;;;9.37;63.20;101097.81;5075306;28;20048;-67
2022/03/26 00:03:03;;;;;;;27.42;16.48;;;;;;;9.40;63.02;101089.94;5073702;28;20029;-67
2022/03/26 00:05:28;;;;;;;31.70;17.35;;;;;;;9.43;63.07;101094.31;5057144;28;20563;-67
2022/03/26 00:07:54;;;;;;;30.20;16.48;;;;;;;9.47;62.67;101093.41;5075151;28;20075;-67
2022/03/26 00:10:19;;;;;;;30.25;17.13;;;;;;;9.41;63.29;101102.16;5073751;28;20078;-68
2022/03/26 00:12:45;;;;;;;24.67;14.95;;;;;;;9.48;62.64;101093.41;5075392;28;20364;-68
2022/03/26 00:15:12;;;;;;;31.70;17.70;;;;;;;9.41;63.29;101096.06;5073947;28;20384;-68
2022/03/26 00:17:39;;;;;;;23.65;14.25;;;;;;;9.48;62.79;101087.28;5074474;28;20037;-68
2022/03/26 00:20:06;;;;;;;28.13;14.98;;;;;;;9.46;62.91;101089.94;5056634;28;20495;-68
2022/03/26 00:22:32;;;;;;;30.45;16.90;;;;;;;9.39;63.62;101085.59;5074575;28;20029;-68
2022/03/26 00:24:58;;;;;;;27.73;15.35;;;;;;;9.47;63.01;101082.94;5073576;28;20361;-68
2022/03/26 00:27:24;;;;;;;27.45;15.90;;;;;;;9.45;63.00;101087.28;5074198;28;20089;-68
2022/03/26 00:29:49;;;;;;;25.35;14.70;;;;;;;9.42;63.09;101068.97;5073187;28;20078;-68
2022/03/26 00:32:15;;;;;;;27.27;16.05;;;;;;;9.38;63.32;101078.59;5074416;28;20028;-68
2022/03/26 00:34:40;;;;;;;28.10;16.70;;;;;;;9.34;63.77;101064.63;5074213;28;20035;-68
2022/03/26 00:37:05;;;;;;;28.77;16.08;;;;;;;9.33;63.91;101065.50;5074467;28;20033;-68
2022/03/26 00:39:31;;;;;;;30.48;17.40;;;;;;;9.28;64.39;101059.41;5074165;28;20158;-68
2022/03/26 00:41:57;;;;;;;32.28;17.45;;;;;;;9.27;64.79;101062.06;5073268;28;20127;-68
2022/03/26 00:44:23;;;;;;;30.85;17.73;;;;;;;9.28;64.55;101069.91;5074122;28;20028;-68
2022/03/26 00:46:49;;;;;;;32.45;18.15;;;;;;;9.32;64.44;101061.13;5074163;28;20173;-68
2022/03/26 00:49:16;;;;;;;31.08;17.75;;;;;;;9.24;64.95;101057.69;5072815;28;20464;-68
2022/03/26 00:51:42;;;;;;;30.92;16.92;;;;;;;9.26;64.94;101066.44;5073246;28;20055;-68
2022/03/26 00:54:11;;;;;;;32.60;17.90;;;;;;;9.28;64.92;101061.16;5056137;28;20400;-68
2022/03/26 00:56:38;;;;;;;38.08;19.67;;;;;;;9.13;65.74;101044.63;5072523;28;20127;-68
2022/03/26 00:59:04;;;;;;;32.22;18.02;;;;;;;9.29;64.97;101045.41;5073803;28;20054;-68
2022/03/26 01:01:31;;;;;;;34.60;19.05;;;;;;;9.29;65.13;101041.91;5055989;28;20036;-68
2022/03/26 01:03:57;;;;;;;31.88;18.20;;;;;;;9.36;64.89;101033.16;5055958;28;20036;-68
2022/03/26 01:06:23;;;;;;;32.03;18.73;;;;;;;9.32;64.84;101039.28;5072619;28;20024;-68
2022/03/26 01:08:49;;;;;;;33.67;19.65;;;;;;;9.40;64.61;101034.88;5072717;28;20059;-68
2022/03/26 01:11:15;;;;;;;40.53;19.90;;;;;;;9.35;64.78;101019.16;5073749;28;20495;-68
2022/03/26 01:13:40;;;;;;;36.90;20.33;;;;;;;9.36;64.93;101030.53;5074175;28;20074;-69
2022/03/26 01:16:06;;;;;;;34.47;19.77;;;;;;;9.31;65.08;101033.19;5055969;28;20060;-68
2022/03/26 01:18:33;;;;;;;35.53;19.17;;;;;;;9.34;64.88;101021.81;5072332;28;20464;-68
2022/03/26 01:20:59;;;;;;;36.90;18.70;;;;;;;9.24;65.51;101014.88;5072377;28;20062;-69
2022/03/26 01:23:24;;;;;;;38.40;19.75;;;;;;;9.16;66.03;101017.53;5072443;28;20032;-68
2022/03/26 01:25:50;;;;;;;40.45;20.33;;;;;;;9.11;66.22;101011.44;5073900;28;20032;-68
2022/03/26 01:28:15;;;;;;;33.55;18.80;;;;;;;9.25;65.48;101008.72;5072329;28;20063;-68
2022/03/26 01:30:41;;;;;;;35.00;19.88;;;;;;;9.23;65.71;101005.25;5073364;28;20107;-68
2022/03/26 01:33:06;;;;;;;34.53;19.63;;;;;;;9.31;65.09;101003.47;5073603;28;20380;-69
2022/03/26 01:35:32;;;;;;;35.35;19.70;;;;;;;9.28;65.56;100995.59;5073375;28;20032;-68
2022/03/26 01:38:01;;;;;;;34.85;19.08;;;;;;;9.31;65.24;100990.34;5072487;28;20036;-69
2022/03/26 01:40:28;;;;;;;33.78;19.63;;;;;;;9.21;66.13;101001.75;5073246;28;20086;-68
2022/03/26 01:42:54;;;;;;;34.97;19.45;;;;;;;9.31;65.63;100995.59;5073476;28;20039;-68
2022/03/26 01:45:20;;;;;;;30.15;17.63;;;;;;;9.31;65.98;101016.56;5072176;28;20039;-67
2022/03/26 01:47:46;;;;;;;32.05;18.77;;;;;;;9.34;65.65;101022.69;5073483;28;20037;-68
2022/03/26 01:50:11;;;;;;;34.47;18.77;;;;;;;9.32;65.92;101024.41;5073789;28;20029;-68
2022/03/26 01:52:36;;;;;;;33.40;17.88;;;;;;;9.36;65.73;101014.78;5073302;28;20502;-68
2022/03/26 01:55:02;;;;;;;31.80;17.98;;;;;;;9.32;66.08;101015.69;5072532;28;20120;-68
2022/03/26 01:57:28;;;;;;;31.05;17.80;;;;;;;9.21;67.20;101018.38;5071911;28;20081;-67
2022/03/26 01:59:55;;;;;;;31.02;17.70;;;;;;;9.30;66.68;101026.19;5055442;28;20526;-68
2022/03/26 02:02:21;;;;;;;31.17;17.10;;;;;;;9.26;67.11;101023.59;5072797;28;20035;-68
2022/03/26 02:04:47;;;;;;;31.55;17.35;;;;;;;9.27;67.13;101026.22;5073275;28;20040;-68
2022/03/26 02:07:12;;;;;;;29.58;16.42;;;;;;;9.34;66.82;101016.56;5073303;28;20171;-68
2022/03/26 02:09:38;;;;;;;28.05;15.43;;;;;;;9.12;68.14;101019.28;5073457;28;20491;-68
2022/03/26 02:12:25;;;;;;;28.38;15.77;;;;;;;9.10;68.37;101013.22;5072169;28;20024;-68
2022/03/26 02:14:51;;;;;;;28.92;15.98;;;;;;;9.06;68.49;101006.25;5055297;28;20043;-68
2022/03/26 02:17:17;;;;;;;28.08;15.68;;;;;;;9.18;67.85;101015.78;5071900;28;20035;-68
2022/03/26 02:19:56;;;;;;;25.98;14.65;;;;;;;9.13;68.50;101002.69;5071904;28;20035;-68
2022/03/26 02:22:23;;;;;;;26.10;15.45;;;;;;;9.18;68.18;101009.66;5055378;28;20384;-68
2022/03/26 02:24:50;;;;;;;26.15;14.80;;;;;;;9.23;68.11;101002.66;5055208;28;20082;-68
2022/03/26 02:27:16;;;;;;;26.27;14.38;;;;;;;9.21;68.27;101013.13;5071565;28;20032;-68
2022/03/26 02:29:41;;;;;;;26.33;14.88;;;;;;;9.17;68.81;101006.16;5072227;28;20036;-68
2022/03/26 02:32:07;;;;;;;24.35;14.07;;;;;;;9.25;68.17;101006.09;5072844;28;20423;-68
2022/03/26 02:34:33;;;;;;;24.42;14.50;;;;;;;9.25;68.56;100995.63;5055137;28;20380;-68
2022/03/26 02:36:59;;;;;;;22.77;12.80;;;;;;;9.20;69.43;100997.41;5055008;28;20037;-68
2022/03/26 02:39:26;;;;;;;24.92;13.65;;;;;;;9.27;69.25;100989.50;5073139;28;20031;-68
2022/03/26 02:41:52;;;;;;;24.85;14.13;;;;;;;9.31;69.30;100988.59;5058396;28;20468;-68
2022/03/26 02:44:17;;;;;;;23.80;13.00;;;;;;;9.40;68.75;100979.78;5075272;28;20037;-68
2022/03/26 02:46:45;;;;;;;24.27;13.63;;;;;;;9.35;69.51;100978.97;5076390;28;20032;-68
2022/03/26 02:49:14;;;;;;;24.50;13.10;;;;;;;9.33;69.66;100968.47;5075108;28;20423;-68
2022/03/26 02:51:41;;;;;;;24.42;12.18;;;;;;;9.51;69.02;100956.09;5074928;28;20032;-68
2022/03/26 02:54:18;;;;;;;24.73;12.75;;;;;;;9.53;68.80;100944.69;5074798;28;20024;-68
2022/03/26 02:56:54;;;;;;;22.73;12.63;;;;;;;9.54;68.99;100940.34;5075310;28;20033;-68
2022/03/26 02:59:21;;;;;;;25.45;13.55;;;;;;;9.49;69.18;100927.25;5076150;28;20102;-68
2022/03/26 03:01:47;;;;;;;21.92;12.43;;;;;;;9.56;68.92;100935.94;5058716;28;20064;-68
2022/03/26 03:04:12;;;;;;;21.70;11.98;;;;;;;9.53;68.96;100936.81;5074855;28;20464;-68
2022/03/26 03:06:38;;;;;;;21.23;12.45;;;;;;;9.44;69.69;100936.91;5075894;28;20077;-68
2022/03/26 03:09:05;;;;;;;22.08;12.60;;;;;;;9.46;69.72;100929.06;5075171;28;20029;-68
2022/03/26 03:11:32;;;;;;;23.02;11.82;;;;;;;9.53;69.36;100930.72;5076065;28;20118;-68
2022/03/26 03:13:57;;;;;;;22.75;11.95;;;;;;;9.44;69.89;100929.03;5058033;28;20033;-68
2022/03/26 03:16:23;;;;;;;24.15;12.60;;;;;;;9.49;69.80;100932.50;5076135;28;20043;-68
2022/03/26 03:18:49;;;;;;;22.00;12.25;;;;;;;9.39;70.27;100928.22;5075948;28;20024;-68
2022/03/26 03:21:14;;;;;;;27.33;12.45;;;;;;;9.32;70.68;100918.66;5075828;28;20029;-68
2022/03/26 03:23:39;;;;;;;22.55;11.60;;;;;;;9.42;70.20;100922.97;5057603;28;20032;-68
2022/03/26 03:26:05;;;;;;;22.35;12.85;;;;;;;9.40;70.30;100914.22;5074426;28;20032;-68
2022/03/26 03:28:30;;;;;;;23.20;11.75;;;;;;;9.30;70.94;100909.94;5075895;28;20518;-68
2022/03/26 03:30:55;;;;;;;24.17;12.02;;;;;;;9.34;70.87;100916.91;5074591;28;20536;-68
2022/03/26 03:33:21;;;;;;;26.33;13.00;;;;;;;9.28;71.27;100901.22;5074435;28;20039;-68
2022/03/26 03:35:47;;;;;;;24.98;11.60;;;;;;;9.37;70.79;100914.22;5074092;28;20048;-68
2022/03/26 03:38:12;;;;;;;21.13;12.40;;;;;;;9.36;70.88;100883.66;5041195;28;20037;-68
2022/03/26 03:40:38;;;;;;;25.40;12.85;;;;;;;9.33;71.08;100881.03;5075313;28;20036;-67
2022/03/26 03:43:03;;;;;;;21.80;12.52;;;;;;;9.33;71.02;100873.19;5075731;28;20384;-68
2022/03/26 03:45:29;;;;;;;20.23;11.27;;;;;;;9.20;71.78;100871.56;5075747;28;20533;-67
2022/03/26 03:47:54;;;;;;;21.95;12.48;;;;;;;9.15;72.36;100849.75;5075326;28;20112;-68
2022/03/26 03:50:20;;;;;;;21.65;11.77;;;;;;;9.10;72.76;100871.63;5075119;28;20124;-67
2022/03/26 03:52:45;;;;;;;22.48;11.95;;;;;;;9.16;72.52;100864.59;5075008;28;20480;-68
2022/03/26 03:55:11;;;;;;;22.40;12.10;;;;;;;9.25;71.91;100859.28;5075395;28;20060;-67
2022/03/26 03:57:42;;;;;;;31.67;13.63;;;;;;;9.09;73.33;100850.66;5073748;28;20044;-68
2022/03/26 04:00:12;;;;;;;22.15;11.93;;;;;;;9.13;73.13;100855.84;5074089;28;20029;-67
2022/03/26 04:02:37;;;;;;;23.05;12.23;;;;;;;9.11;73.33;100878.63;5073719;28;20037;-67
2022/03/26 04:05:03;;;;;;;20.90;11.73;;;;;;;9.25;72.60;100867.13;5075171;28;20032;-67
2022/03/26 04:07:29;;;;;;;19.13;11.20;;;;;;;9.20;73.21;100876.78;5057014;28;20037;-67
2022/03/26 04:09:54;;;;;;;22.55;12.68;;;;;;;9.31;72.63;100891.56;5074937;28;20426;-68
2022/03/26 04:12:20;;;;;;;19.65;12.30;;;;;;;9.42;72.16;100873.13;5074821;28;20051;-67
2022/03/26 04:14:45;;;;;;;21.25;10.63;;;;;;;9.58;71.38;100874.72;5074016;28;20080;-68
2022/03/26 04:17:12;;;;;;;20.38;11.95;;;;;;;9.62;71.28;100878.19;5074423;28;20089;-67
2022/03/26 04:19:38;;;;;;;23.92;12.02;;;;;;;9.66;71.13;100881.66;5056884;28;20059;-67
2022/03/26 04:22:05;;;;;;;19.85;11.48;;;;;;;9.75;70.70;100863.19;5073340;28;20059;-67
2022/03/26 04:24:31;;;;;;;20.05;10.90;;;;;;;9.85;70.36;100875.28;5073328;28;20032;-67
2022/03/26 04:26:56;;;;;;;17.80;10.48;;;;;;;9.86;70.21;100879.69;5074567;28;20032;-67
2022/03/26 04:29:21;;;;;;;22.67;12.43;;;;;;;9.80;70.56;100872.72;5074518;28;20060;-67
2022/03/26 04:31:47;;;;;;;21.77;10.60;;;;;;;9.80;70.92;100882.34;5074473;28;20035;-67
2022/03/26 04:34:12;;;;;;;20.23;10.90;;;;;;;9.76;71.28;100876.28;5074336;28;20396;-67
2022/03/26 04:36:38;;;;;;;19.85;11.32;;;;;;;9.90;70.69;100880.53;5074143;28;20071;-69
2022/03/26 04:39:03;;;;;;;17.55;10.35;;;;;;;9.74;71.65;100885.06;5074307;28;20032;-67
2022/03/26 04:41:29;;;;;;;18.55;11.30;;;;;;;9.96;70.49;100891.81;5074288;28;20028;-67
2022/03/26 04:43:55;;;;;;;20.48;10.13;;;;;;;10.03;70.28;100892.63;5074199;28;20035;-67
2022/03/26 04:46:20;;;;;;;14.52;10.13;;;;;;;9.92;70.77;100878.72;5074211;28;20044;-67
2022/03/26 04:48:46;;;;;;;17.80;10.48;;;;;;;10.10;70.03;100889.03;5074055;28;20043;-67
2022/03/26 04:51:12;;;;;;;18.67;10.48;;;;;;;10.02;70.44;100886.50;5072949;28;20032;-67
2022/03/26 04:53:38;;;;;;;17.65;9.75;;;;;;;10.12;70.22;100876.75;5056139;28;20067;-67
2022/03/26 04:56:03;;;;;;;16.73;10.60;;;;;;;10.14;70.11;100882.00;5072971;28;20056;-67
2022/03/26 04:58:29;;;;;;;17.23;10.40;;;;;;;10.23;69.74;100887.13;5073874;28;20052;-67
2022/03/26 05:00:54;;;;;;;19.30;10.13;;;;;;;10.21;69.79;100881.00;5074196;28;20044;-67
2022/03/26 05:03:20;;;;;;;20.98;10.88;;;;;;;10.17;69.95;100887.19;5072249;28;20122;-67
2022/03/26 05:05:45;;;;;;;18.13;10.43;;;;;;;10.14;69.76;100895.13;5073678;28;20036;-67
2022/03/26 05:08:11;;;;;;;15.73;10.07;;;;;;;10.35;69.18;100895.75;5073796;28;20036;-66
2022/03/26 05:10:36;;;;;;;19.05;10.20;;;;;;;10.41;69.00;100899.19;5039070;28;20029;-66
2022/03/26 05:13:02;;;;;;;16.70;10.02;;;;;;;10.39;68.98;100906.22;5073821;28;20028;-67
2022/03/26 05:15:27;;;;;;;16.02;9.65;;;;;;;10.39;69.04;100914.97;5072545;28;20079;-67
2022/03/26 05:17:55;;;;;;;19.70;10.25;;;;;;;10.40;69.03;100897.47;5073660;28;20426;-67
2022/03/26 05:20:21;;;;;;;21.00;11.23;;;;;;;10.50;68.47;100893.84;5073718;28;20052;-67
2022/03/26 05:22:48;;;;;;;17.08;10.48;;;;;;;10.52;68.57;100899.91;5072361;28;20495;-67
2022/03/26 05:25:15;;;;;;;17.45;10.27;;;;;;;10.50;68.47;100899.97;5073746;28;20123;-67
2022/03/26 05:27:49;;;;;;;19.13;10.27;;;;;;;10.50;68.75;100915.72;5055592;28;20078;-67
2022/03/26 05:30:15;;;;;;;22.27;11.25;;;;;;;10.30;69.11;100909.84;5072454;28;20044;-67
2022/03/26 05:32:41;;;;;;;15.98;9.95;;;;;;;10.51;68.57;100906.94;5073598;28;20082;-67
2022/03/26 05:35:11;;;;;;;16.92;10.55;;;;;;;10.52;68.57;100929.69;5073350;28;20036;-67
2022/03/26 05:37:38;;;;;;;19.38;10.35;;;;;;;10.54;68.47;100921.81;5072767;28;20032;-67
2022/03/26 05:40:05;;;;;;;20.80;10.40;;;;;;;10.54;68.55;100956.84;5072221;28;20057;-67
2022/03/26 05:42:30;;;;;;;19.17;9.80;;;;;;;10.46;68.67;100913.16;5073378;28;20111;-68
2022/03/26 05:44:56;;;;;;;18.20;10.55;;;;;;;10.51;68.70;100917.44;5073434;28;20071;-67
2022/03/26 05:47:23;;;;;;;24.27;11.07;;;;;;;10.51;68.66;100916.59;5073340;28;20182;-67
2022/03/26 05:49:49;;;;;;;17.27;10.65;;;;;;;10.54;68.49;100951.56;5073857;28;20040;-67
2022/03/26 05:52:15;;;;;;;28.90;11.65;;;;;;;10.54;68.58;100933.19;5072379;28;20024;-67
2022/03/26 05:54:40;;;;;;;21.83;10.77;;;;;;;10.36;69.25;100943.91;5071954;28;20032;-67
2022/03/26 05:57:06;;;;;;;19.20;10.88;;;;;;;10.54;68.50;100927.94;5072193;28;20029;-67
2022/03/26 05:59:31;;;;;;;21.55;11.60;;;;;;;10.45;68.91;100961.31;5071804;28;20057;-67
2022/03/26 06:01:57;;;;;;;20.45;11.13;;;;;;;10.53;68.78;100947.22;5072282;28;20438;-67
2022/03/26 06:04:27;;;;;;;17.63;10.95;;;;;;;10.44;68.89;100957.81;5073456;28;20038;-67
2022/03/26 06:06:52;;;;;;;22.85;12.27;;;;;;;10.39;69.35;100954.38;5071521;28;20033;-67
2022/03/26 06:09:18;;;;;;;17.60;10.52;;;;;;;10.54;68.47;100942.81;5073473;28;20063;-67
2022/03/26 06:11:43;;;;;;;20.80;10.90;;;;;;;10.45;68.84;100970.09;5073191;28;20032;-67
2022/03/26 06:14:09;;;;;;;25.52;11.23;;;;;;;10.35;69.44;100969.31;5074142;28;20059;-67
2022/03/26 06:16:34;;;;;;;18.83;11.15;;;;;;;10.48;68.91;100962.16;5076972;28;20063;-67
2022/03/26 06:19:00;;;;;;;20.67;11.40;;;;;;;10.40;69.32;100987.63;5076915;28;20476;-67
2022/03/26 06:21:28;;;;;;;20.70;11.18;;;;;;;10.52;68.89;100974.34;5042454;28;20043;-67
2022/03/26 06:23:57;;;;;;;18.75;11.25;;;;;;;10.33;69.66;100959.69;5075644;28;20123;-67
2022/03/26 06:26:22;;;;;;;21.00;10.38;;;;;;;10.48;69.17;100956.88;5059281;28;20464;-67
2022/03/26 06:28:48;;;;;;;22.02;12.35;;;;;;;10.53;68.83;100962.09;5076709;28;20036;-69
2022/03/26 06:31:13;;;;;;;20.10;11.52;;;;;;;10.49;69.25;100987.56;5076981;28;20028;-67
2022/03/26 06:33:39;;;;;;;21.55;11.57;;;;;;;10.31;70.10;101008.75;5076545;28;20029;-67
2022/03/26 06:36:04;;;;;;;23.67;11.43;;;;;;;10.47;69.44;100991.94;5075579;28;20548;-67
2022/03/26 06:38:31;;;;;;;20.70;10.45;;;;;;;10.59;68.89;100994.41;5076559;28;20036;-66
2022/03/26 06:40:57;;;;;;;19.75;11.27;;;;;;;10.71;68.47;100988.16;5076368;28;20036;-67
2022/03/26 06:43:22;;;;;;;19.58;11.23;;;;;;;10.52;69.33;101002.41;5075227;28;20032;-66
2022/03/26 06:45:48;;;;;;;21.58;10.75;;;;;;;10.54;69.24;101017.25;5076697;28;20036;-66
2022/03/26 06:48:13;;;;;;;28.23;11.82;;;;;;;10.42;69.61;101022.66;5076679;28;20036;-67
2022/03/26 06:50:38;;;;;;;19.23;11.30;;;;;;;10.51;69.36;101012.03;5076436;28;20025;-67
2022/03/26 06:53:04;;;;;;;18.67;11.23;;;;;;;10.58;69.05;101005.84;5076223;28;20366;-67
2022/03/26 06:55:29;;;;;;;26.05;11.88;;;;;;;10.42;69.80;101017.41;5075118;28;20120;-66
2022/03/26 06:57:55;;;;;;;23.30;11.07;;;;;;;10.36;69.98;101022.72;5076064;28;20060;-66
2022/03/26 07:00:20;;;;;;;22.67;12.55;;;;;;;10.53;69.46;101012.91;5076918;28;20040;-66
2022/03/26 07:02:46;;;;;;;30.05;12.73;;;;;;;10.53;69.42;101010.28;5075196;28;20404;-66
2022/03/26 07:05:15;;;;;;;24.75;13.02;;;;;;;10.71;68.83;101045.09;5076111;28;20423;-67
2022/03/26 07:07:41;;;;;;;21.98;13.32;;;;;;;10.71;68.47;101024.94;5074927;28;20514;-66
2022/03/26 07:10:07;;;;;;;23.15;12.63;;;;;;;10.86;68.11;101023.91;5074817;28;20048;-66
2022/03/26 07:12:33;;;;;;;23.05;12.25;;;;;;;10.93;67.80;101030.81;5074684;28;20472;-62
2022/03/26 07:14:59;;;;;;;20.40;12.15;;;;;;;10.99;67.65;101033.34;5076247;28;20052;-67
2022/03/26 07:17:24;;;;;;;19.38;12.43;;;;;;;11.03;67.40;101021.03;5076049;28;20039;-67
2022/03/26 07:19:51;;;;;;;22.15;12.13;;;;;;;11.17;66.85;101028.72;5076069;28;20028;-67
2022/03/26 07:22:17;;;;;;;22.95;12.38;;;;;;;11.14;67.01;101036.69;5076010;28;20060;-67
2022/03/26 07:24:42;;;;;;;19.58;12.60;;;;;;;11.31;66.29;101042.56;5074093;28;20037;-67
2022/03/26 07:27:08;;;;;;;24.05;13.15;;;;;;;11.38;66.14;101033.72;5075421;28;20040;-67
2022/03/26 07:29:35;;;;;;;19.27;11.52;;;;;;;11.54;65.60;101051.00;5075681;28;20081;-66
2022/03/26 07:32:01;;;;;;;20.35;12.25;;;;;;;11.60;65.17;101047.41;5075721;28;20029;-66
2022/03/26 07:34:26;;;;;;;20.42;11.88;;;;;;;11.81;64.60;101035.69;5075953;28;20418;-66
2022/03/26 07:36:52;;;;;;;21.60;12.40;;;;;;;11.73;64.57;101037.53;5075499;28;20033;-67
2022/03/26 07:39:18;;;;;;;21.05;12.30;;;;;;;11.91;64.02;101039.91;5073864;28;20480;-66
2022/03/26 07:41:43;;;;;;;20.10;11.82;;;;;;;11.90;63.76;101032.94;5075389;28;20067;-67
2022/03/26 07:44:09;;;;;;;20.17;11.43;;;;;;;11.75;64.26;101044.53;5075387;28;20144;-67
2022/03/26 07:46:34;;;;;;;22.13;12.90;;;;;;;11.87;63.65;101058.44;5075516;28;20420;-67
2022/03/26 07:49:00;;;;;;;23.48;12.82;;;;;;;11.80;63.89;101049.72;5075172;28;20449;-67
2022/03/26 07:51:26;;;;;;;25.55;13.80;;;;;;;11.76;64.02;101062.06;5075588;28;20041;-67
2022/03/26 07:53:51;;;;;;;23.17;12.02;;;;;;;11.69;64.00;101059.53;5073839;28;20036;-67
2022/03/26 07:56:17;;;;;;;25.02;13.45;;;;;;;11.74;64.02;101060.38;5075091;28;20033;-67
2022/03/26 07:58:43;;;;;;;26.23;14.40;;;;;;;11.86;63.69;101060.19;5073827;28;20056;-66
2022/03/26 08:01:09;;;;;;;20.20;11.50;;;;;;;11.76;63.72;101098.06;5075409;28;20381;-66
2022/03/26 08:03:35;;;;;;;21.27;10.73;;;;;;;12.03;63.15;101071.31;5073626;28;20025;-66
2022/03/26 08:06:00;;;;;;;16.85;10.65;;;;;;;11.95;63.24;101059.19;5074924;28;20517;-66
2022/03/26 08:08:26;;;;;;;19.27;10.45;;;;;;;12.04;62.80;101061.66;5073334;28;20052;-66
2022/03/26 08:10:51;;;;;;;22.15;10.40;;;;;;;12.00;62.89;101092.44;5074791;28;20024;-68
2022/03/26 08:13:17;;;;;;;19.90;10.50;;;;;;;12.07;62.72;101073.00;5056677;28;20039;-66
2022/03/26 08:15:43;;;;;;;24.90;11.40;;;;;;;12.20;62.23;101078.94;5075018;28;20063;-66
2022/03/26 08:18:08;;;;;;;19.65;10.38;;;;;;;12.25;62.30;101094.69;5074440;28;20056;-66
2022/03/26 08:20:34;;;;;;;19.85;10.70;;;;;;;12.21;62.28;101079.84;5074691;28;20032;-67
2022/03/26 08:22:59;;;;;;;16.77;10.23;;;;;;;12.16;62.14;101092.19;5074622;28;20040;-67
2022/03/26 08:28:11;;;;;;;15.20;9.68;;;;;;;11.86;62.80;101094.44;5074377;28;20468;-68
2022/03/26 08:30:37;;;;;;;17.98;10.40;;;;;;;11.78;63.18;101106.81;5056664;28;20032;-68
2022/03/26 08:33:02;;;;;;;23.33;10.45;;;;;;;11.88;63.07;101113.69;5073074;28;20032;-66
2022/03/26 08:35:35;;;;;;;18.15;10.38;;;;;;;11.96;62.81;101096.00;5071927;28;20037;-67
2022/03/26 08:38:01;;;;;;;20.08;10.23;;;;;;;12.07;62.33;101099.34;5055483;28;20030;-66
2022/03/26 08:40:27;;;;;;;18.30;10.25;;;;;;;12.13;62.18;101098.41;5074097;28;20039;-68
2022/03/26 08:42:52;;;;;;;14.20;9.45;;;;;;;12.25;61.75;101102.59;5074423;28;20078;-67
2022/03/26 08:45:19;;;;;;;17.20;10.65;;;;;;;12.39;61.12;101089.16;5074234;28;20032;-68
2022/03/26 08:47:45;;;;;;;15.93;9.75;;;;;;;12.26;61.13;101091.16;5072844;28;20362;-68
2022/03/26 08:50:10;;;;;;;17.80;9.32;;;;;;;12.48;60.83;101086.34;5072446;28;20380;-68
2022/03/26 08:52:37;;;;;;;18.92;10.20;;;;;;;12.49;60.63;101115.34;5074350;28;20040;-67
2022/03/26 08:55:03;;;;;;;18.45;9.48;;;;;;;12.62;60.09;101104.56;5074059;28;20486;-68
2022/03/26 08:57:29;;;;;;;19.08;10.32;;;;;;;12.53;60.23;101129.34;5055800;28;20488;-68
2022/03/26 08:59:54;;;;;;;20.02;9.57;;;;;;;12.66;59.99;101115.03;5074236;28;20032;-66
2022/03/26 09:02:20;;;;;;;17.40;10.18;;;;;;;12.70;59.34;101121.13;5072915;28;20090;-67
2022/03/26 09:04:46;;;;;;;15.73;8.85;;;;;;;12.59;59.16;101131.84;5056034;28;20165;-67
2022/03/26 09:07:11;;;;;;;16.85;9.30;;;;;;;12.97;58.87;101109.16;5073859;28;20036;-68
2022/03/26 09:09:37;;;;;;;16.95;8.00;;;;;;;12.67;58.51;101168.63;5074306;28;20109;-68
2022/03/26 09:12:03;;;;;;;17.88;8.70;;;;;;;12.60;58.47;101135.34;5073713;28;20115;-68
2022/03/26 09:14:29;;;;;;;15.98;8.43;;;;;;;12.46;59.13;101115.38;5072600;28;20041;-67
2022/03/26 09:16:54;;;;;;;15.18;9.25;;;;;;;12.78;58.25;101127.09;5073713;28;20041;-67
2022/03/26 09:19:20;;;;;;;15.52;8.68;;;;;;;12.79;58.21;101131.47;5072503;28;20043;-67
2022/03/26 09:21:46;;;;;;;13.82;8.25;;;;;;;12.99;57.50;101124.03;5073715;28;20042;-67
2022/03/26 09:24:14;;;;;;;14.13;8.02;;;;;;;13.38;57.07;101129.44;5074083;28;20388;-67
2022/03/26 09:26:39;;;;;;;17.92;8.65;;;;;;;13.47;56.64;101126.59;5072401;28;20036;-67
2022/03/26 09:29:05;;;;;;;15.30;7.95;;;;;;;13.46;55.80;101140.72;5072413;28;20040;-67
2022/03/26 09:31:31;;;;;;;13.15;7.53;;;;;;;13.54;55.80;101138.78;5073437;28;20036;-67
2022/03/26 09:33:56;;;;;;;14.88;8.00;;;;;;;13.66;55.71;101120.91;5072354;28;20043;-67
2022/03/26 09:36:22;;;;;;;10.80;6.25;;;;;;;13.93;54.95;101146.72;5073927;28;20460;-67
2022/03/26 09:38:47;;;;;;;17.33;7.47;;;;;;;13.53;55.11;101133.53;5073720;28;20071;-68
2022/03/26 09:41:14;;;;;;;17.02;8.18;;;;;;;13.32;55.49;101140.13;5072195;28;20033;-67
2022/03/26 09:43:40;;;;;;;15.00;7.50;;;;;;;13.22;55.69;101146.47;5056011;28;20041;-67
2022/03/26 09:46:06;;;;;;;20.92;8.73;;;;;;;13.22;55.76;101151.75;5072205;28;20091;-67
2022/03/26 09:48:32;;;;;;;18.50;8.55;;;;;;;13.17;54.96;101153.63;5074190;28;20059;-67
2022/03/26 09:51:00;;;;;;;10.23;6.22;;;;;;;12.97;55.09;101160.16;5059342;28;20060;-67
2022/03/26 09:53:26;;;;;;;9.98;5.55;;;;;;;12.86;55.06;101169.16;5076236;28;20020;-66
2022/03/26 09:55:52;;;;;;;10.90;5.20;;;;;;;12.99;54.89;101171.53;5059946;28;20034;-68
2022/03/26 09:58:17;;;;;;;8.82;5.45;;;;;;;13.02;54.80;101155.66;5077316;28;20078;-68
2022/03/26 10:00:43;;;;;;;11.18;4.93;;;;;;;12.89;54.56;101177.91;5077536;28;20082;-69
2022/03/26 10:03:08;;;;;;;10.18;5.30;;;;;;;12.85;54.69;101177.94;5077402;28;20036;-68
2022/03/26 10:05:35;;;;;;;9.38;4.63;;;;;;;12.89;54.70;101183.16;5077134;28;20361;-67
2022/03/26 10:08:20;;;;;;;11.43;4.65;;;;;;;12.70;54.41;101179.13;5077423;28;20511;-68
2022/03/26 10:10:46;;;;;;;11.93;5.75;;;;;;;12.74;54.54;101180.81;5076969;28;20111;-68
2022/03/26 10:13:32;;;;;;;9.38;4.43;;;;;;;12.90;54.50;101186.66;5076030;28;20029;-68
2022/03/26 10:16:05;;;;;;;10.73;5.35;;;;;;;12.74;54.58;101180.81;5077415;28;20047;-67
2022/03/26 10:18:34;;;;;;;13.48;5.60;;;;;;;12.98;53.86;101174.22;5077410;28;20028;-68
2022/03/26 10:21:00;;;;;;;11.55;5.07;;;;;;;13.23;53.69;101193.09;5075793;28;20036;-68
2022/03/26 10:23:28;;;;;;;9.63;4.90;;;;;;;13.34;52.69;101191.13;5075651;28;20089;-68
2022/03/26 10:26:14;;;;;;;9.40;4.55;;;;;;;13.27;51.21;101187.72;5075764;28;20025;-68
2022/03/26 10:28:41;;;;;;;9.85;3.72;;;;;;;13.36;51.81;101181.38;5075467;28;20032;-68
2022/03/26 10:34:21;;;;;;;8.35;4.60;;;;;;;13.17;52.02;101191.44;5076969;28;20032;-68
2022/03/26 10:37:00;;;;;;;9.32;4.55;;;;;;;13.13;52.45;101196.81;5075262;28;20044;-67
2022/03/26 10:39:27;;;;;;;8.95;4.47;;;;;;;13.48;51.92;101204.88;5077089;28;20435;-68
2022/03/26 10:41:54;;;;;;;8.98;4.28;;;;;;;13.51;51.82;101204.84;5075250;28;20457;-68
2022/03/26 10:44:28;;;;;;;7.75;4.43;;;;;;;13.84;51.25;101207.66;5076640;28;20032;-66
2022/03/26 10:46:59;;;;;;;9.23;4.10;;;;;;;13.94;50.04;101210.97;5076500;28;20029;-66
2022/03/26 10:49:40;;;;;;;5.00;3.00;;;;;;;14.16;48.82;101212.25;5074959;28;20036;-67
2022/03/26 10:52:15;;;;;;;7.03;2.70;;;;;;;14.02;46.78;101215.19;5075489;28;20059;-66
2022/03/26 10:54:41;;;;;;;6.60;2.50;;;;;;;14.05;46.91;101219.53;5076356;28;20032;-66
2022/03/26 10:57:06;;;;;;;5.63;2.53;;;;;;;14.04;46.85;101218.66;5076023;28;20040;-67
2022/03/26 10:59:32;;;;;;;5.95;2.70;;;;;;;13.87;47.21;101226.09;5074115;28;20049;-67
2022/03/26 11:01:58;;;;;;;8.02;3.05;;;;;;;13.98;47.11;101229.38;5058259;28;20443;-66
2022/03/26 11:04:28;;;;;;;9.80;3.72;;;;;;;13.87;47.31;101228.72;5058908;28;20032;-67
2022/03/26 11:06:56;;;;;;;12.60;6.40;;;;;;;13.74;47.85;101230.75;5058274;28;20032;-67
2022/03/26 11:09:22;;;;;;;9.10;3.85;;;;;;;13.74;47.77;101229.91;5075134;28;20074;-67
2022/03/26 11:11:52;;;;;;;10.15;5.03;;;;;;;14.25;47.26;101227.00;5074897;28;20033;-67
2022/03/26 11:14:26;;;;;;;5.60;3.25;;;;;;;14.51;46.10;101216.69;5057958;28;20035;-67
2022/03/26 11:17:06;;;;;;;5.75;2.97;;;;;;;14.82;44.87;101218.56;5075111;28;20031;-67